sensor_id;sensor_type;location;lat;lon;timestamp;temperature;humidity
25352;DHT22;13304;48.464;8.712;2022-07-17T00:01:22;20.70;50.10
25352;DHT22;13304;48.464;8.712;2022-07-17T00:03:47;20.70;50.10
25352;DHT22;13304;48.464;8.712;2022-07-17T00:06:13;20.70;50.20
25352;DHT22;13304;48.464;8.712;2022-07-17T00:08:40;20.70;50.30
25352;DHT22;13304;48.464;8.712;2022-07-17T00:11:05;20.70;50.20
25352;DHT22;13304;48.464;8.712;2022-07-17T00:13:31;20.70;50.50
25352;DHT22;13304;48.464;8.712;2022-07-17T00:15:57;20.70;50.40
25352;DHT22;13304;48.464;8.712;2022-07-17T00:18:23;20.70;50.20
25352;DHT22;13304;48.464;8.712;2022-07-17T00:20:49;20.60;50.30
25352;DHT22;13304;48.464;8.712;2022-07-17T00:23:15;20.70;50.50
25352;DHT22;13304;48.464;8.712;2022-07-17T00:25:40;20.70;50.60
25352;DHT22;13304;48.464;8.712;2022-07-17T00:28:06;20.70;50.50
25352;DHT22;13304;48.464;8.712;2022-07-17T00:30:32;20.70;50.50
25352;DHT22;13304;48.464;8.712;2022-07-17T00:32:58;20.70;50.50
25352;DHT22;13304;48.464;8.712;2022-07-17T00:35:23;20.70;50.60
25352;DHT22;13304;48.464;8.712;2022-07-17T00:37:50;20.70;50.60
25352;DHT22;13304;48.464;8.712;2022-07-17T00:40:20;20.60;50.70
25352;DHT22;13304;48.464;8.712;2022-07-17T00:42:46;20.60;51.00
25352;DHT22;13304;48.464;8.712;2022-07-17T00:45:13;20.60;50.80
25352;DHT22;13304;48.464;8.712;2022-07-17T00:47:59;20.60;51.10
25352;DHT22;13304;48.464;8.712;2022-07-17T00:50:28;20.50;50.90
25352;DHT22;13304;48.464;8.712;2022-07-17T00:52:54;20.50;50.60
25352;DHT22;13304;48.464;8.712;2022-07-17T00:55:21;20.50;50.70
25352;DHT22;13304;48.464;8.712;2022-07-17T00:57:49;20.50;50.70
25352;DHT22;13304;48.464;8.712;2022-07-17T01:00:16;20.50;50.80
25352;DHT22;13304;48.464;8.712;2022-07-17T01:02:46;20.50;50.70
25352;DHT22;13304;48.464;8.712;2022-07-17T01:05:13;20.50;50.80
25352;DHT22;13304;48.464;8.712;2022-07-17T01:07:38;20.50;50.90
25352;DHT22;13304;48.464;8.712;2022-07-17T01:10:04;20.40;51.00
25352;DHT22;13304;48.464;8.712;2022-07-17T01:12:33;20.40;51.20
25352;DHT22;13304;48.464;8.712;2022-07-17T01:14:59;20.40;51.10
25352;DHT22;13304;48.464;8.712;2022-07-17T01:17:25;20.30;51.20
25352;DHT22;13304;48.464;8.712;2022-07-17T01:19:51;20.30;51.30
25352;DHT22;13304;48.464;8.712;2022-07-17T01:22:17;20.30;51.50
25352;DHT22;13304;48.464;8.712;2022-07-17T01:24:43;20.30;51.60
25352;DHT22;13304;48.464;8.712;2022-07-17T01:27:09;20.30;51.60
25352;DHT22;13304;48.464;8.712;2022-07-17T01:29:38;20.20;51.50
25352;DHT22;13304;48.464;8.712;2022-07-17T01:32:04;20.20;51.60
25352;DHT22;13304;48.464;8.712;2022-07-17T01:34:31;20.20;51.60
25352;DHT22;13304;48.464;8.712;2022-07-17T01:36:56;20.20;51.70
25352;DHT22;13304;48.464;8.712;2022-07-17T01:39:22;20.10;51.70
25352;DHT22;13304;48.464;8.712;2022-07-17T01:42:08;20.10;51.80
25352;DHT22;13304;48.464;8.712;2022-07-17T01:44:34;20.10;51.80
25352;DHT22;13304;48.464;8.712;2022-07-17T01:47:00;20.00;51.70
25352;DHT22;13304;48.464;8.712;2022-07-17T01:49:26;20.00;51.70
25352;DHT22;13304;48.464;8.712;2022-07-17T01:51:52;19.90;51.70
25352;DHT22;13304;48.464;8.712;2022-07-17T01:54:18;19.90;51.80
25352;DHT22;13304;48.464;8.712;2022-07-17T01:56:43;19.80;51.80
25352;DHT22;13304;48.464;8.712;2022-07-17T01:59:09;19.80;52.00
25352;DHT22;13304;48.464;8.712;2022-07-17T02:01:35;19.80;52.00
25352;DHT22;13304;48.464;8.712;2022-07-17T02:04:00;19.70;52.10
25352;DHT22;13304;48.464;8.712;2022-07-17T02:06:26;19.70;52.20
25352;DHT22;13304;48.464;8.712;2022-07-17T02:08:52;19.70;52.40
25352;DHT22;13304;48.464;8.712;2022-07-17T02:11:18;19.70;52.60
25352;DHT22;13304;48.464;8.712;2022-07-17T02:13:44;19.60;52.60
25352;DHT22;13304;48.464;8.712;2022-07-17T02:16:10;19.60;52.70
25352;DHT22;13304;48.464;8.712;2022-07-17T02:18:35;19.50;52.70
25352;DHT22;13304;48.464;8.712;2022-07-17T02:21:01;19.50;52.80
25352;DHT22;13304;48.464;8.712;2022-07-17T02:23:27;19.50;52.90
25352;DHT22;13304;48.464;8.712;2022-07-17T02:25:54;19.50;53.00
25352;DHT22;13304;48.464;8.712;2022-07-17T02:28:20;19.40;53.10
25352;DHT22;13304;48.464;8.712;2022-07-17T02:30:46;19.40;53.10
25352;DHT22;13304;48.464;8.712;2022-07-17T02:33:12;19.40;53.20
25352;DHT22;13304;48.464;8.712;2022-07-17T02:35:38;19.30;53.20
25352;DHT22;13304;48.464;8.712;2022-07-17T02:38:04;19.30;53.30
25352;DHT22;13304;48.464;8.712;2022-07-17T02:40:30;19.30;53.40
25352;DHT22;13304;48.464;8.712;2022-07-17T02:42:56;19.20;53.60
25352;DHT22;13304;48.464;8.712;2022-07-17T02:45:21;19.20;53.70
25352;DHT22;13304;48.464;8.712;2022-07-17T02:47:51;19.20;53.70
25352;DHT22;13304;48.464;8.712;2022-07-17T02:50:16;19.10;53.90
25352;DHT22;13304;48.464;8.712;2022-07-17T02:52:42;19.10;54.00
25352;DHT22;13304;48.464;8.712;2022-07-17T02:55:10;19.10;54.10
25352;DHT22;13304;48.464;8.712;2022-07-17T02:57:37;19.00;54.20
25352;DHT22;13304;48.464;8.712;2022-07-17T03:00:09;19.00;54.20
25352;DHT22;13304;48.464;8.712;2022-07-17T03:02:36;19.00;54.40
25352;DHT22;13304;48.464;8.712;2022-07-17T03:05:03;18.90;54.30
25352;DHT22;13304;48.464;8.712;2022-07-17T03:07:28;18.90;54.50
25352;DHT22;13304;48.464;8.712;2022-07-17T03:09:54;18.90;54.60
25352;DHT22;13304;48.464;8.712;2022-07-17T03:12:20;18.90;54.80
25352;DHT22;13304;48.464;8.712;2022-07-17T03:14:46;18.80;54.80
25352;DHT22;13304;48.464;8.712;2022-07-17T03:17:11;18.80;54.80
25352;DHT22;13304;48.464;8.712;2022-07-17T03:19:37;18.80;54.80
25352;DHT22;13304;48.464;8.712;2022-07-17T03:22:03;18.80;54.70
25352;DHT22;13304;48.464;8.712;2022-07-17T03:24:28;18.80;54.70
25352;DHT22;13304;48.464;8.712;2022-07-17T03:26:54;18.80;54.70
25352;DHT22;13304;48.464;8.712;2022-07-17T03:29:20;18.70;54.70
25352;DHT22;13304;48.464;8.712;2022-07-17T03:31:47;18.70;54.70
25352;DHT22;13304;48.464;8.712;2022-07-17T03:34:13;18.70;54.70
25352;DHT22;13304;48.464;8.712;2022-07-17T03:36:39;18.60;54.70
25352;DHT22;13304;48.464;8.712;2022-07-17T03:39:05;18.60;54.80
25352;DHT22;13304;48.464;8.712;2022-07-17T03:41:32;18.60;54.80
25352;DHT22;13304;48.464;8.712;2022-07-17T03:43:57;18.60;54.80
25352;DHT22;13304;48.464;8.712;2022-07-17T03:46:23;18.50;54.70
25352;DHT22;13304;48.464;8.712;2022-07-17T03:48:49;18.50;54.70
25352;DHT22;13304;48.464;8.712;2022-07-17T03:51:15;18.50;54.90
25352;DHT22;13304;48.464;8.712;2022-07-17T03:53:41;18.50;54.90
25352;DHT22;13304;48.464;8.712;2022-07-17T03:56:07;18.40;55.00
25352;DHT22;13304;48.464;8.712;2022-07-17T03:58:33;18.40;55.00
25352;DHT22;13304;48.464;8.712;2022-07-17T04:00:59;18.40;55.10
25352;DHT22;13304;48.464;8.712;2022-07-17T04:03:25;18.40;55.20
25352;DHT22;13304;48.464;8.712;2022-07-17T04:05:52;18.40;55.30
25352;DHT22;13304;48.464;8.712;2022-07-17T04:08:17;18.30;55.40
25352;DHT22;13304;48.464;8.712;2022-07-17T04:10:44;18.30;55.50
25352;DHT22;13304;48.464;8.712;2022-07-17T04:13:10;18.30;55.60
25352;DHT22;13304;48.464;8.712;2022-07-17T04:15:36;18.30;55.60
25352;DHT22;13304;48.464;8.712;2022-07-17T04:18:24;18.30;55.70
25352;DHT22;13304;48.464;8.712;2022-07-17T04:20:50;18.30;55.70
25352;DHT22;13304;48.464;8.712;2022-07-17T04:23:17;18.20;55.80
25352;DHT22;13304;48.464;8.712;2022-07-17T04:25:43;18.20;55.90
25352;DHT22;13304;48.464;8.712;2022-07-17T04:28:10;18.20;56.10
25352;DHT22;13304;48.464;8.712;2022-07-17T04:30:36;18.20;56.20
25352;DHT22;13304;48.464;8.712;2022-07-17T04:33:02;18.20;56.30
25352;DHT22;13304;48.464;8.712;2022-07-17T04:35:28;18.20;56.50
25352;DHT22;13304;48.464;8.712;2022-07-17T04:37:54;18.20;56.70
25352;DHT22;13304;48.464;8.712;2022-07-17T04:40:20;18.20;56.70
25352;DHT22;13304;48.464;8.712;2022-07-17T04:42:46;18.20;56.90
25352;DHT22;13304;48.464;8.712;2022-07-17T04:45:12;18.20;57.00
25352;DHT22;13304;48.464;8.712;2022-07-17T04:47:39;18.20;57.30
25352;DHT22;13304;48.464;8.712;2022-07-17T04:50:06;18.30;57.50
25352;DHT22;13304;48.464;8.712;2022-07-17T04:52:31;18.40;57.60
25352;DHT22;13304;48.464;8.712;2022-07-17T04:54:57;18.50;57.80
25352;DHT22;13304;48.464;8.712;2022-07-17T04:57:23;18.60;57.70
25352;DHT22;13304;48.464;8.712;2022-07-17T04:59:49;18.70;57.70
25352;DHT22;13304;48.464;8.712;2022-07-17T05:02:15;18.80;57.70
25352;DHT22;13304;48.464;8.712;2022-07-17T05:04:40;18.90;57.40
25352;DHT22;13304;48.464;8.712;2022-07-17T05:07:06;19.00;57.10
25352;DHT22;13304;48.464;8.712;2022-07-17T05:09:32;19.10;56.80
25352;DHT22;13304;48.464;8.712;2022-07-17T05:11:58;19.20;56.50
25352;DHT22;13304;48.464;8.712;2022-07-17T05:14:23;19.30;56.30
25352;DHT22;13304;48.464;8.712;2022-07-17T05:16:49;19.40;56.10
25352;DHT22;13304;48.464;8.712;2022-07-17T05:19:15;19.40;56.00
25352;DHT22;13304;48.464;8.712;2022-07-17T05:21:41;19.40;55.90
25352;DHT22;13304;48.464;8.712;2022-07-17T05:24:07;19.50;55.80
25352;DHT22;13304;48.464;8.712;2022-07-17T05:26:33;19.50;55.90
25352;DHT22;13304;48.464;8.712;2022-07-17T05:28:59;19.50;56.40
25352;DHT22;13304;48.464;8.712;2022-07-17T05:31:25;19.60;56.00
25352;DHT22;13304;48.464;8.712;2022-07-17T05:33:50;19.60;56.00
25352;DHT22;13304;48.464;8.712;2022-07-17T05:36:16;19.60;56.20
25352;DHT22;13304;48.464;8.712;2022-07-17T05:38:42;19.60;56.30
25352;DHT22;13304;48.464;8.712;2022-07-17T05:41:08;19.70;56.40
25352;DHT22;13304;48.464;8.712;2022-07-17T05:43:33;19.70;56.50
25352;DHT22;13304;48.464;8.712;2022-07-17T05:45:59;19.70;56.50
25352;DHT22;13304;48.464;8.712;2022-07-17T05:48:26;19.80;56.60
25352;DHT22;13304;48.464;8.712;2022-07-17T05:50:52;19.80;56.60
25352;DHT22;13304;48.464;8.712;2022-07-17T05:53:18;19.80;56.70
25352;DHT22;13304;48.464;8.712;2022-07-17T05:55:44;19.90;56.90
25352;DHT22;13304;48.464;8.712;2022-07-17T05:58:10;19.90;56.90
25352;DHT22;13304;48.464;8.712;2022-07-17T06:00:36;19.90;56.70
25352;DHT22;13304;48.464;8.712;2022-07-17T06:03:04;20.00;56.80
25352;DHT22;13304;48.464;8.712;2022-07-17T06:05:30;20.00;57.00
25352;DHT22;13304;48.464;8.712;2022-07-17T06:07:56;20.10;56.80
25352;DHT22;13304;48.464;8.712;2022-07-17T06:10:23;20.10;56.70
25352;DHT22;13304;48.464;8.712;2022-07-17T06:12:49;20.20;56.90
25352;DHT22;13304;48.464;8.712;2022-07-17T06:15:15;20.20;56.90
25352;DHT22;13304;48.464;8.712;2022-07-17T06:17:41;20.30;57.10
25352;DHT22;13304;48.464;8.712;2022-07-17T06:20:08;20.30;57.00
25352;DHT22;13304;48.464;8.712;2022-07-17T06:22:34;20.40;56.90
25352;DHT22;13304;48.464;8.712;2022-07-17T06:24:59;20.40;56.50
25352;DHT22;13304;48.464;8.712;2022-07-17T06:27:25;20.50;56.00
25352;DHT22;13304;48.464;8.712;2022-07-17T06:29:51;20.50;55.50
25352;DHT22;13304;48.464;8.712;2022-07-17T06:32:17;20.60;55.90
25352;DHT22;13304;48.464;8.712;2022-07-17T06:34:43;20.60;55.50
25352;DHT22;13304;48.464;8.712;2022-07-17T06:37:09;20.70;55.30
25352;DHT22;13304;48.464;8.712;2022-07-17T06:39:35;20.70;55.00
25352;DHT22;13304;48.464;8.712;2022-07-17T06:42:01;20.80;55.30
25352;DHT22;13304;48.464;8.712;2022-07-17T06:44:27;20.90;54.80
25352;DHT22;13304;48.464;8.712;2022-07-17T06:46:52;20.90;54.20
25352;DHT22;13304;48.464;8.712;2022-07-17T06:49:18;20.90;54.70
25352;DHT22;13304;48.464;8.712;2022-07-17T06:51:44;20.90;54.40
25352;DHT22;13304;48.464;8.712;2022-07-17T06:54:12;21.00;54.10
25352;DHT22;13304;48.464;8.712;2022-07-17T06:56:38;21.00;53.70
25352;DHT22;13304;48.464;8.712;2022-07-17T06:59:04;21.10;53.80
25352;DHT22;13304;48.464;8.712;2022-07-17T07:01:36;21.10;53.50
25352;DHT22;13304;48.464;8.712;2022-07-17T07:04:02;21.20;53.40
25352;DHT22;13304;48.464;8.712;2022-07-17T07:06:29;21.30;53.40
25352;DHT22;13304;48.464;8.712;2022-07-17T07:08:55;21.30;53.30
25352;DHT22;13304;48.464;8.712;2022-07-17T07:11:21;21.30;53.40
25352;DHT22;13304;48.464;8.712;2022-07-17T07:13:47;21.40;52.90
25352;DHT22;13304;48.464;8.712;2022-07-17T07:16:13;21.40;52.80
25352;DHT22;13304;48.464;8.712;2022-07-17T07:18:38;21.50;52.90
25352;DHT22;13304;48.464;8.712;2022-07-17T07:21:04;21.50;52.40
25352;DHT22;13304;48.464;8.712;2022-07-17T07:23:30;21.60;52.90
25352;DHT22;13304;48.464;8.712;2022-07-17T07:25:56;21.60;52.70
25352;DHT22;13304;48.464;8.712;2022-07-17T07:28:22;21.70;52.40
25352;DHT22;13304;48.464;8.712;2022-07-17T07:30:47;21.80;52.50
25352;DHT22;13304;48.464;8.712;2022-07-17T07:33:13;21.80;51.40
25352;DHT22;13304;48.464;8.712;2022-07-17T07:35:39;21.90;51.30
25352;DHT22;13304;48.464;8.712;2022-07-17T07:38:05;21.90;51.00
25352;DHT22;13304;48.464;8.712;2022-07-17T07:40:31;22.00;50.80
25352;DHT22;13304;48.464;8.712;2022-07-17T07:42:57;22.00;51.10
25352;DHT22;13304;48.464;8.712;2022-07-17T07:45:23;22.10;51.30
25352;DHT22;13304;48.464;8.712;2022-07-17T07:47:49;22.10;51.30
25352;DHT22;13304;48.464;8.712;2022-07-17T07:50:19;22.20;51.50
25352;DHT22;13304;48.464;8.712;2022-07-17T07:52:46;22.30;51.10
25352;DHT22;13304;48.464;8.712;2022-07-17T07:55:13;22.30;51.10
25352;DHT22;13304;48.464;8.712;2022-07-17T07:57:39;22.40;51.40
25352;DHT22;13304;48.464;8.712;2022-07-17T08:00:06;22.50;51.70
25352;DHT22;13304;48.464;8.712;2022-07-17T08:02:33;22.50;52.20
25352;DHT22;13304;48.464;8.712;2022-07-17T08:04:59;22.50;51.90
25352;DHT22;13304;48.464;8.712;2022-07-17T08:07:28;22.60;51.00
25352;DHT22;13304;48.464;8.712;2022-07-17T08:09:54;22.70;50.80
25352;DHT22;13304;48.464;8.712;2022-07-17T08:12:21;22.80;50.30
25352;DHT22;13304;48.464;8.712;2022-07-17T08:14:46;22.80;50.10
25352;DHT22;13304;48.464;8.712;2022-07-17T08:17:12;22.90;50.20
25352;DHT22;13304;48.464;8.712;2022-07-17T08:19:38;22.90;49.80
25352;DHT22;13304;48.464;8.712;2022-07-17T08:22:04;23.00;50.20
25352;DHT22;13304;48.464;8.712;2022-07-17T08:24:29;23.10;49.60
25352;DHT22;13304;48.464;8.712;2022-07-17T08:26:55;23.10;49.60
25352;DHT22;13304;48.464;8.712;2022-07-17T08:29:21;23.20;49.50
25352;DHT22;13304;48.464;8.712;2022-07-17T08:31:46;23.20;49.40
25352;DHT22;13304;48.464;8.712;2022-07-17T08:34:12;23.30;48.90
25352;DHT22;13304;48.464;8.712;2022-07-17T08:36:40;23.40;48.70
25352;DHT22;13304;48.464;8.712;2022-07-17T08:39:06;23.40;48.70
25352;DHT22;13304;48.464;8.712;2022-07-17T08:41:32;23.50;48.10
25352;DHT22;13304;48.464;8.712;2022-07-17T08:44:03;23.50;48.50
25352;DHT22;13304;48.464;8.712;2022-07-17T08:46:29;23.60;48.50
25352;DHT22;13304;48.464;8.712;2022-07-17T08:48:59;23.70;48.20
25352;DHT22;13304;48.464;8.712;2022-07-17T08:51:26;23.70;48.10
25352;DHT22;13304;48.464;8.712;2022-07-17T08:53:53;23.70;47.80
25352;DHT22;13304;48.464;8.712;2022-07-17T08:56:19;23.80;46.90
25352;DHT22;13304;48.464;8.712;2022-07-17T08:58:45;23.80;46.60
25352;DHT22;13304;48.464;8.712;2022-07-17T09:01:11;23.90;46.50
25352;DHT22;13304;48.464;8.712;2022-07-17T09:03:39;23.90;46.30
25352;DHT22;13304;48.464;8.712;2022-07-17T09:06:04;24.00;46.50
25352;DHT22;13304;48.464;8.712;2022-07-17T09:08:30;24.00;46.40
25352;DHT22;13304;48.464;8.712;2022-07-17T09:10:59;24.10;46.00
25352;DHT22;13304;48.464;8.712;2022-07-17T09:13:27;24.10;46.30
25352;DHT22;13304;48.464;8.712;2022-07-17T09:15:57;24.20;46.20
25352;DHT22;13304;48.464;8.712;2022-07-17T09:18:23;24.10;44.70
25352;DHT22;13304;48.464;8.712;2022-07-17T09:20:54;24.30;45.40
25352;DHT22;13304;48.464;8.712;2022-07-17T09:23:22;24.30;44.80
25352;DHT22;13304;48.464;8.712;2022-07-17T09:25:52;24.30;45.10
25352;DHT22;13304;48.464;8.712;2022-07-17T09:28:19;24.40;44.60
25352;DHT22;13304;48.464;8.712;2022-07-17T09:30:55;24.40;45.00
25352;DHT22;13304;48.464;8.712;2022-07-17T09:33:24;24.40;44.10
25352;DHT22;13304;48.464;8.712;2022-07-17T09:35:57;24.50;43.70
25352;DHT22;13304;48.464;8.712;2022-07-17T09:38:34;24.50;43.90
25352;DHT22;13304;48.464;8.712;2022-07-17T09:41:16;24.60;44.10
25352;DHT22;13304;48.464;8.712;2022-07-17T09:43:56;24.60;44.90
25352;DHT22;13304;48.464;8.712;2022-07-17T09:48:58;24.60;43.50
25352;DHT22;13304;48.464;8.712;2022-07-17T09:51:29;24.60;43.20
25352;DHT22;13304;48.464;8.712;2022-07-17T09:53:58;24.70;43.30
25352;DHT22;13304;48.464;8.712;2022-07-17T09:56:27;24.80;43.80
25352;DHT22;13304;48.464;8.712;2022-07-17T09:59:05;24.80;43.10
25352;DHT22;13304;48.464;8.712;2022-07-17T10:01:33;24.80;43.30
25352;DHT22;13304;48.464;8.712;2022-07-17T10:03:59;24.90;43.40
25352;DHT22;13304;48.464;8.712;2022-07-17T10:06:25;25.00;43.90
25352;DHT22;13304;48.464;8.712;2022-07-17T10:08:53;25.00;44.00
25352;DHT22;13304;48.464;8.712;2022-07-17T10:11:21;25.10;43.70
25352;DHT22;13304;48.464;8.712;2022-07-17T10:13:48;25.10;43.90
25352;DHT22;13304;48.464;8.712;2022-07-17T10:16:29;25.10;43.70
25352;DHT22;13304;48.464;8.712;2022-07-17T10:18:56;25.20;42.70
25352;DHT22;13304;48.464;8.712;2022-07-17T10:21:24;25.20;43.00
25352;DHT22;13304;48.464;8.712;2022-07-17T10:26:40;25.30;41.50
25352;DHT22;13304;48.464;8.712;2022-07-17T10:29:33;25.40;42.00
25352;DHT22;13304;48.464;8.712;2022-07-17T10:32:02;25.40;40.90
25352;DHT22;13304;48.464;8.712;2022-07-17T10:34:38;25.50;42.10
25352;DHT22;13304;48.464;8.712;2022-07-17T10:37:19;25.50;42.10
25352;DHT22;13304;48.464;8.712;2022-07-17T10:40:04;25.50;42.10
25352;DHT22;13304;48.464;8.712;2022-07-17T10:42:54;25.50;41.80
25352;DHT22;13304;48.464;8.712;2022-07-17T10:45:25;25.50;41.40
25352;DHT22;13304;48.464;8.712;2022-07-17T10:48:06;25.70;42.20
25352;DHT22;13304;48.464;8.712;2022-07-17T10:55:40;25.80;40.60
25352;DHT22;13304;48.464;8.712;2022-07-17T10:58:24;25.80;40.90
25352;DHT22;13304;48.464;8.712;2022-07-17T11:01:12;25.80;39.60
25352;DHT22;13304;48.464;8.712;2022-07-17T11:11:20;26.00;39.90
25352;DHT22;13304;48.464;8.712;2022-07-17T11:13:46;25.90;39.20
25352;DHT22;13304;48.464;8.712;2022-07-17T11:16:26;26.00;38.70
25352;DHT22;13304;48.464;8.712;2022-07-17T11:18:52;26.00;38.70
25352;DHT22;13304;48.464;8.712;2022-07-17T11:21:19;26.10;39.00
25352;DHT22;13304;48.464;8.712;2022-07-17T11:23:56;26.10;38.80
25352;DHT22;13304;48.464;8.712;2022-07-17T11:26:22;26.20;38.40
25352;DHT22;13304;48.464;8.712;2022-07-17T11:28:49;26.20;38.10
25352;DHT22;13304;48.464;8.712;2022-07-17T11:31:21;26.20;37.80
25352;DHT22;13304;48.464;8.712;2022-07-17T11:36:24;26.20;37.00
25352;DHT22;13304;48.464;8.712;2022-07-17T11:38:51;26.30;37.90
25352;DHT22;13304;48.464;8.712;2022-07-17T11:41:17;26.30;37.40
25352;DHT22;13304;48.464;8.712;2022-07-17T11:43:44;26.30;36.90
25352;DHT22;13304;48.464;8.712;2022-07-17T11:46:10;26.40;37.10
25352;DHT22;13304;48.464;8.712;2022-07-17T11:48:36;26.40;37.50
25352;DHT22;13304;48.464;8.712;2022-07-17T11:51:02;26.40;37.10
25352;DHT22;13304;48.464;8.712;2022-07-17T11:53:33;26.40;37.00
25352;DHT22;13304;48.464;8.712;2022-07-17T11:56:00;26.40;36.20
25352;DHT22;13304;48.464;8.712;2022-07-17T11:58:26;26.40;36.50
25352;DHT22;13304;48.464;8.712;2022-07-17T12:01:05;26.40;36.70
25352;DHT22;13304;48.464;8.712;2022-07-17T12:03:31;26.40;35.50
25352;DHT22;13304;48.464;8.712;2022-07-17T12:05:56;26.50;36.20
25352;DHT22;13304;48.464;8.712;2022-07-17T12:08:22;26.50;36.10
25352;DHT22;13304;48.464;8.712;2022-07-17T12:10:59;26.60;36.50
25352;DHT22;13304;48.464;8.712;2022-07-17T12:13:39;26.50;35.50
25352;DHT22;13304;48.464;8.712;2022-07-17T12:16:28;26.60;35.40
25352;DHT22;13304;48.464;8.712;2022-07-17T12:21:31;26.70;34.80
25352;DHT22;13304;48.464;8.712;2022-07-17T12:24:06;26.70;33.30
25352;DHT22;13304;48.464;8.712;2022-07-17T12:26:33;26.70;33.20
25352;DHT22;13304;48.464;8.712;2022-07-17T12:28:59;26.70;34.00
25352;DHT22;13304;48.464;8.712;2022-07-17T12:31:26;26.80;35.00
25352;DHT22;13304;48.464;8.712;2022-07-17T12:33:53;26.80;34.60
25352;DHT22;13304;48.464;8.712;2022-07-17T12:36:21;26.80;34.30
25352;DHT22;13304;48.464;8.712;2022-07-17T12:38:47;26.90;33.70
25352;DHT22;13304;48.464;8.712;2022-07-17T12:41:14;26.90;33.60
25352;DHT22;13304;48.464;8.712;2022-07-17T12:43:40;26.90;34.40
25352;DHT22;13304;48.464;8.712;2022-07-17T12:46:06;26.90;34.60
25352;DHT22;13304;48.464;8.712;2022-07-17T12:48:32;27.00;33.30
25352;DHT22;13304;48.464;8.712;2022-07-17T12:50:58;27.00;32.90
25352;DHT22;13304;48.464;8.712;2022-07-17T12:53:24;27.10;32.60
25352;DHT22;13304;48.464;8.712;2022-07-17T12:55:49;27.10;32.90
25352;DHT22;13304;48.464;8.712;2022-07-17T12:58:15;27.10;32.20
25352;DHT22;13304;48.464;8.712;2022-07-17T13:00:41;27.10;33.00
25352;DHT22;13304;48.464;8.712;2022-07-17T13:03:08;27.10;32.70
25352;DHT22;13304;48.464;8.712;2022-07-17T13:05:33;27.20;33.40
25352;DHT22;13304;48.464;8.712;2022-07-17T13:07:59;27.30;32.70
25352;DHT22;13304;48.464;8.712;2022-07-17T13:10:25;27.30;31.80
25352;DHT22;13304;48.464;8.712;2022-07-17T13:12:51;27.30;32.10
25352;DHT22;13304;48.464;8.712;2022-07-17T13:15:16;27.30;32.30
25352;DHT22;13304;48.464;8.712;2022-07-17T13:17:42;27.40;31.80
25352;DHT22;13304;48.464;8.712;2022-07-17T13:20:09;27.40;31.70
25352;DHT22;13304;48.464;8.712;2022-07-17T13:22:35;27.40;31.90
25352;DHT22;13304;48.464;8.712;2022-07-17T13:25:01;27.40;31.90
25352;DHT22;13304;48.464;8.712;2022-07-17T13:27:26;27.50;32.00
25352;DHT22;13304;48.464;8.712;2022-07-17T13:29:52;27.40;31.30
25352;DHT22;13304;48.464;8.712;2022-07-17T13:32:18;27.50;31.30
25352;DHT22;13304;48.464;8.712;2022-07-17T13:34:44;27.50;31.10
25352;DHT22;13304;48.464;8.712;2022-07-17T13:37:09;27.50;30.00
25352;DHT22;13304;48.464;8.712;2022-07-17T13:39:36;27.50;30.50
25352;DHT22;13304;48.464;8.712;2022-07-17T13:42:02;27.60;30.00
25352;DHT22;13304;48.464;8.712;2022-07-17T13:44:28;27.60;30.20
25352;DHT22;13304;48.464;8.712;2022-07-17T13:46:54;27.60;30.50
25352;DHT22;13304;48.464;8.712;2022-07-17T13:49:20;27.70;30.00
25352;DHT22;13304;48.464;8.712;2022-07-17T13:51:47;27.70;29.90
25352;DHT22;13304;48.464;8.712;2022-07-17T13:54:13;27.70;30.00
25352;DHT22;13304;48.464;8.712;2022-07-17T13:56:39;27.60;30.00
25352;DHT22;13304;48.464;8.712;2022-07-17T13:59:04;27.70;29.80
25352;DHT22;13304;48.464;8.712;2022-07-17T14:01:31;27.70;30.00
25352;DHT22;13304;48.464;8.712;2022-07-17T14:03:57;27.80;29.90
25352;DHT22;13304;48.464;8.712;2022-07-17T14:06:23;27.80;30.30
25352;DHT22;13304;48.464;8.712;2022-07-17T14:08:49;27.80;30.10
25352;DHT22;13304;48.464;8.712;2022-07-17T14:11:15;27.80;30.30
25352;DHT22;13304;48.464;8.712;2022-07-17T14:13:40;27.80;30.80
25352;DHT22;13304;48.464;8.712;2022-07-17T14:16:06;27.90;29.70
25352;DHT22;13304;48.464;8.712;2022-07-17T14:18:33;27.90;29.80
25352;DHT22;13304;48.464;8.712;2022-07-17T14:20:59;27.90;29.30
25352;DHT22;13304;48.464;8.712;2022-07-17T14:23:24;27.90;30.10
25352;DHT22;13304;48.464;8.712;2022-07-17T14:25:50;27.90;29.90
25352;DHT22;13304;48.464;8.712;2022-07-17T14:28:16;28.00;30.00
25352;DHT22;13304;48.464;8.712;2022-07-17T14:30:42;28.00;30.10
25352;DHT22;13304;48.464;8.712;2022-07-17T14:33:08;28.00;30.00
25352;DHT22;13304;48.464;8.712;2022-07-17T14:35:33;28.00;30.10
25352;DHT22;13304;48.464;8.712;2022-07-17T14:38:00;28.10;30.50
25352;DHT22;13304;48.464;8.712;2022-07-17T14:40:26;28.10;30.50
25352;DHT22;13304;48.464;8.712;2022-07-17T14:42:52;28.10;30.10
25352;DHT22;13304;48.464;8.712;2022-07-17T14:45:18;28.20;30.20
25352;DHT22;13304;48.464;8.712;2022-07-17T14:47:44;28.20;29.60
25352;DHT22;13304;48.464;8.712;2022-07-17T14:50:10;28.30;29.50
25352;DHT22;13304;48.464;8.712;2022-07-17T14:52:36;28.40;29.90
25352;DHT22;13304;48.464;8.712;2022-07-17T14:55:02;28.40;30.20
25352;DHT22;13304;48.464;8.712;2022-07-17T14:57:28;28.60;30.30
25352;DHT22;13304;48.464;8.712;2022-07-17T14:59:54;28.70;30.70
25352;DHT22;13304;48.464;8.712;2022-07-17T15:02:20;28.80;30.20
25352;DHT22;13304;48.464;8.712;2022-07-17T15:04:46;28.90;29.80
25352;DHT22;13304;48.464;8.712;2022-07-17T15:07:11;29.00;30.00
25352;DHT22;13304;48.464;8.712;2022-07-17T15:09:37;29.20;29.70
25352;DHT22;13304;48.464;8.712;2022-07-17T15:12:03;29.30;29.80
25352;DHT22;13304;48.464;8.712;2022-07-17T15:14:29;29.40;29.70
25352;DHT22;13304;48.464;8.712;2022-07-17T15:16:54;29.60;29.20
25352;DHT22;13304;48.464;8.712;2022-07-17T15:19:20;29.90;29.50
25352;DHT22;13304;48.464;8.712;2022-07-17T15:21:46;30.10;28.90
25352;DHT22;13304;48.464;8.712;2022-07-17T15:24:12;30.30;29.00
25352;DHT22;13304;48.464;8.712;2022-07-17T15:26:37;30.50;29.00
25352;DHT22;13304;48.464;8.712;2022-07-17T15:29:03;30.80;28.30
25352;DHT22;13304;48.464;8.712;2022-07-17T15:31:29;30.90;28.90
25352;DHT22;13304;48.464;8.712;2022-07-17T15:33:55;31.00;28.50
25352;DHT22;13304;48.464;8.712;2022-07-17T15:36:20;31.00;28.20
25352;DHT22;13304;48.464;8.712;2022-07-17T15:38:57;30.90;27.90
25352;DHT22;13304;48.464;8.712;2022-07-17T15:41:25;30.70;28.10
25352;DHT22;13304;48.464;8.712;2022-07-17T15:43:51;30.70;28.00
25352;DHT22;13304;48.464;8.712;2022-07-17T15:46:17;30.50;27.80
25352;DHT22;13304;48.464;8.712;2022-07-17T15:48:43;30.30;28.30
25352;DHT22;13304;48.464;8.712;2022-07-17T15:51:09;30.20;28.40
25352;DHT22;13304;48.464;8.712;2022-07-17T15:53:34;30.00;28.90